Time;durP1;ratioP1;P1;durP2;ratioP2;P2;SDS_P1;SDS_P2;PMS_P1;PMS_P2;Temp;Humidity;BMP_temperature;BMP_pressure;BME280_temperature;BME280_humidity;BME280_pressure;Samples;Min_cycle;Max_cycle;Signal;HPM_P1;HPM_P2
2024/01/14 00:02:05;;;;;;;0.00;0.00;;;;;;;2.42;93.01;100648.56;4984944;28;20039;-76
2024/01/14 00:04:30;;;;;;;0.00;0.00;;;;;;;2.39;93.46;100651.69;4975613;28;20117;-73
2024/01/14 00:06:56;;;;;;;0.00;0.00;;;;;;;2.35;93.43;100645.03;4949311;28;20064;-75
2024/01/14 00:09:21;;;;;;;0.00;0.00;;;;;;;2.34;94.20;100648.78;4975084;28;20026;-76
2024/01/14 00:11:48;;;;;;;0.00;0.00;;;;;;;2.34;94.26;100646.09;4967819;28;20082;-75
2024/01/14 00:14:14;;;;;;;0.00;0.00;;;;;;;2.37;94.60;100635.69;4961162;28;20026;-76
2024/01/14 00:16:39;;;;;;;0.10;0.10;;;;;;;2.42;94.78;100637.75;4971876;28;20389;-76
2024/01/14 00:19:05;;;;;;;0.00;0.00;;;;;;;2.43;94.61;100640.25;4991003;28;20034;-76
2024/01/14 00:21:31;;;;;;;0.00;0.00;;;;;;;2.50;94.49;100650.22;4968410;28;20034;-75
2024/01/14 00:23:56;;;;;;;0.00;0.00;;;;;;;2.43;95.33;100639.44;4959248;28;20088;-75
2024/01/14 00:26:24;;;;;;;0.00;0.00;;;;;;;2.36;95.24;100633.19;4964004;28;20031;-76
2024/01/14 00:28:52;;;;;;;0.00;0.00;;;;;;;2.40;95.61;100634.47;4979076;28;20083;-75
2024/01/14 00:31:17;;;;;;;0.08;0.08;;;;;;;2.36;95.73;100631.31;4964039;28;20081;-75
2024/01/14 00:33:43;;;;;;;0.00;0.00;;;;;;;2.41;95.84;100636.94;4978373;28;20031;-77
2024/01/14 00:36:09;;;;;;;0.00;0.00;;;;;;;2.37;95.81;100619.50;4959554;28;20039;-75
2024/01/14 00:38:34;;;;;;;0.00;0.00;;;;;;;2.44;96.12;100623.03;4964236;28;20030;-75
2024/01/14 00:41:00;;;;;;;0.00;0.00;;;;;;;2.41;96.40;100622.59;4961815;28;20117;-75
2024/01/14 00:43:27;;;;;;;0.00;0.00;;;;;;;2.35;96.41;100624.28;4964648;28;20068;-75
2024/01/14 00:45:52;;;;;;;0.00;0.00;;;;;;;2.22;96.83;100625.09;4971914;28;20106;-76
2024/01/14 00:48:18;;;;;;;0.00;0.00;;;;;;;2.19;96.57;100622.81;4973489;28;20021;-76
2024/01/14 00:50:43;;;;;;;0.00;0.00;;;;;;;2.12;96.84;100610.34;4985550;28;20037;-77
2024/01/14 00:53:09;;;;;;;0.00;0.00;;;;;;;1.95;96.57;100591.03;4966658;28;20030;-77
2024/01/14 00:55:35;;;;;;;0.10;0.10;;;;;;;2.10;97.68;100602.44;4956823;28;20019;-78
2024/01/14 00:58:00;;;;;;;0.00;0.00;;;;;;;2.16;97.11;100607.03;4954993;28;20125;-76
2024/01/14 01:00:26;;;;;;;0.00;0.00;;;;;;;2.18;97.90;100599.56;4973683;28;20072;-76
2024/01/14 01:02:52;;;;;;;0.00;0.00;;;;;;;2.18;98.43;100599.56;4936060;28;20027;-77
2024/01/14 01:05:18;;;;;;;0.00;0.00;;;;;;;2.20;97.85;100602.88;4962474;28;20030;-77
2024/01/14 01:07:45;;;;;;;0.00;0.00;;;;;;;2.18;98.08;100609.53;4968881;28;20034;-77
2024/01/14 01:10:10;;;;;;;0.10;0.10;;;;;;;2.01;98.33;100593.72;4957922;28;20126;-75
2024/01/14 01:12:36;;;;;;;0.00;0.00;;;;;;;2.01;98.61;100590.19;4956006;28;20062;-76
2024/01/14 01:15:03;;;;;;;0.00;0.00;;;;;;;1.98;98.33;100596.00;4957880;28;20041;-75
2024/01/14 01:17:29;;;;;;;0.10;0.10;;;;;;;1.91;98.15;100593.28;4959615;28;20062;-76
2024/01/14 01:19:54;;;;;;;0.00;0.00;;;;;;;1.85;98.08;100572.53;4943476;28;20038;-77
2024/01/14 01:22:20;;;;;;;0.10;0.10;;;;;;;1.87;98.62;100581.25;4952020;28;20046;-77
2024/01/14 01:24:45;;;;;;;0.10;0.10;;;;;;;1.90;98.82;100581.69;4962915;28;20035;-75
2024/01/14 01:27:11;;;;;;;0.00;0.00;;;;;;;1.81;98.90;100576.66;4956577;28;20053;-75
2024/01/14 01:29:36;;;;;;;0.00;0.00;;;;;;;1.85;98.43;100584.16;4970769;28;20035;-74
2024/01/14 01:32:02;;;;;;;0.00;0.00;;;;;;;1.77;98.53;100581.66;4969371;28;20545;-75
2024/01/14 01:34:30;;;;;;;0.00;0.00;;;;;;;1.69;99.30;100576.44;4976943;28;20052;-75
2024/01/14 01:36:55;;;;;;;0.00;0.00;;;;;;;1.69;99.36;100574.56;4971615;28;20023;-73
2024/01/14 01:39:20;;;;;;;0.10;0.10;;;;;;;1.64;99.33;100581.63;4986716;28;20023;-75
2024/01/14 01:41:49;;;;;;;0.00;0.00;;;;;;;1.59;99.78;100574.13;4945715;28;20397;-75
2024/01/14 01:44:14;;;;;;;0.10;0.10;;;;;;;1.54;99.86;100577.44;4969669;28;20084;-74
2024/01/14 01:46:40;;;;;;;0.00;0.00;;;;;;;1.44;99.88;100560.81;4970307;28;20026;-74
2024/01/14 01:49:05;;;;;;;0.10;0.10;;;;;;;1.43;100.00;100564.56;4958556;28;20030;-75
2024/01/14 01:51:31;;;;;;;0.00;0.00;;;;;;;1.42;100.00;100568.28;4954162;28;20042;-76
2024/01/14 01:53:57;;;;;;;0.00;0.00;;;;;;;1.42;100.00;100554.81;4974015;28;20149;-76
2024/01/14 01:56:24;;;;;;;0.00;0.00;;;;;;;1.37;100.00;100538.41;4965875;28;20030;-77
2024/01/14 01:58:51;;;;;;;0.00;0.00;;;;;;;1.16;100.00;100512.44;4961578;28;20011;-73
2024/01/14 02:01:16;;;;;;;0.10;0.10;;;;;;;1.36;100.00;100548.38;4959096;28;20037;-77
2024/01/14 02:03:42;;;;;;;0.10;0.10;;;;;;;1.32;100.00;100535.50;4946475;28;20034;-74
2024/01/14 02:06:09;;;;;;;0.00;0.00;;;;;;;1.38;100.00;100534.69;4952959;28;20030;-75
2024/01/14 02:08:36;;;;;;;0.00;0.00;;;;;;;1.36;100.00;100537.59;4970878;28;20064;-75
2024/01/14 02:11:01;;;;;;;0.00;0.00;;;;;;;1.36;100.00;100528.69;4968520;28;20052;-75
2024/01/14 02:13:27;;;;;;;0.00;0.00;;;;;;;1.40;100.00;100529.91;4967778;28;20030;-75
2024/01/14 02:15:53;;;;;;;0.10;0.10;;;;;;;1.38;100.00;100529.28;4987107;28;20022;-75
2024/01/14 02:18:18;;;;;;;0.00;0.00;;;;;;;1.36;100.00;100531.38;4955842;28;20473;-75
2024/01/14 02:20:43;;;;;;;0.00;0.00;;;;;;;1.35;100.00;100533.22;4956154;28;20038;-76
2024/01/14 02:23:12;;;;;;;0.00;0.00;;;;;;;1.32;100.00;100519.34;4950446;28;20022;-74
2024/01/14 02:25:37;;;;;;;0.00;0.00;;;;;;;1.34;100.00;100522.66;4988349;28;20058;-76
2024/01/14 02:28:03;;;;;;;0.10;0.10;;;;;;;1.18;100.00;100486.97;4946842;28;20027;-77
2024/01/14 02:30:30;;;;;;;0.10;0.10;;;;;;;1.24;100.00;100509.56;4930490;28;20146;-76
2024/01/14 02:32:55;;;;;;;0.00;0.00;;;;;;;1.30;100.00;100513.31;4965048;28;20122;-77
2024/01/14 02:35:21;;;;;;;0.00;0.00;;;;;;;1.29;100.00;100517.06;4963354;28;20042;-76
2024/01/14 02:37:47;;;;;;;0.00;0.00;;;;;;;1.31;100.00;100517.66;4989066;28;20023;-76
2024/01/14 02:40:16;;;;;;;0.00;0.00;;;;;;;1.31;100.00;100518.50;4935988;28;20026;-76
2024/01/14 02:42:41;;;;;;;0.10;0.10;;;;;;;1.26;100.00;100509.38;4951474;28;20037;-76
2024/01/14 02:45:08;;;;;;;0.00;0.00;;;;;;;1.31;100.00;100512.28;4959088;28;20023;-76
2024/01/14 02:47:33;;;;;;;0.00;0.00;;;;;;;1.36;100.00;100521.41;4978206;28;20058;-76
2024/01/14 02:49:59;;;;;;;0.00;0.00;;;;;;;1.15;100.00;100487.34;4967666;28;20027;-77
2024/01/14 02:52:24;;;;;;;0.10;0.10;;;;;;;1.32;100.00;100509.38;4967117;28;20380;-77
2024/01/14 02:54:50;;;;;;;0.10;0.10;;;;;;;1.34;100.00;100501.09;4936022;28;20069;-76
2024/01/14 02:57:15;;;;;;;0.10;0.10;;;;;;;1.34;100.00;100495.69;4955975;28;20033;-76
2024/01/14 02:59:40;;;;;;;0.10;0.10;;;;;;;1.44;99.80;100504.22;4954561;28;20034;-74
2024/01/14 03:02:06;;;;;;;0.00;0.00;;;;;;;1.43;100.00;100507.13;4954531;28;20022;-75
2024/01/14 03:04:31;;;;;;;0.00;0.00;;;;;;;1.40;99.89;100494.88;4951934;28;20045;-76
2024/01/14 03:06:57;;;;;;;0.10;0.10;;;;;;;1.41;99.64;100495.72;4969475;28;20033;-77
2024/01/14 03:09:22;;;;;;;0.10;0.10;;;;;;;1.37;99.74;100479.13;4938114;28;20027;-76
2024/01/14 03:11:47;;;;;;;0.00;0.00;;;;;;;1.42;99.91;100490.13;4967688;28;20019;-76
2024/01/14 03:14:13;;;;;;;0.00;0.00;;;;;;;1.42;99.94;100476.66;4949502;28;20082;-76
2024/01/14 03:16:38;;;;;;;0.00;0.00;;;;;;;1.44;99.73;100479.16;4979060;28;20104;-76
2024/01/14 03:19:04;;;;;;;0.10;0.10;;;;;;;1.43;99.48;100470.25;4975706;28;20038;-75
2024/01/14 03:21:29;;;;;;;0.03;0.03;;;;;;;1.45;99.99;100481.63;4956704;28;20030;-74
2024/01/14 03:23:54;;;;;;;0.00;0.00;;;;;;;1.45;99.37;100465.47;4968382;28;20057;-74
2024/01/14 03:26:20;;;;;;;0.00;0.00;;;;;;;1.42;99.35;100465.88;4962703;28;20031;-75
2024/01/14 03:28:46;;;;;;;0.00;0.00;;;;;;;1.45;99.20;100460.06;4962413;28;20518;-74
2024/01/14 03:31:15;;;;;;;0.00;0.00;;;;;;;1.44;99.43;100458.41;4946532;28;20054;-75
2024/01/14 03:33:42;;;;;;;0.10;0.10;;;;;;;1.51;99.03;100461.94;4972724;28;20022;-76
2024/01/14 03:36:11;;;;;;;0.00;0.00;;;;;;;1.47;99.07;100441.00;4970797;28;20138;-75
2024/01/14 03:38:36;;;;;;;0.10;0.10;;;;;;;1.50;99.11;100436.03;4964291;28;20033;-75
2024/01/14 03:41:02;;;;;;;0.00;0.00;;;;;;;1.50;98.67;100440.59;4963211;28;20481;-74
2024/01/14 03:43:27;;;;;;;0.10;0.10;;;;;;;1.48;98.61;100430.03;4945301;28;20019;-76
2024/01/14 03:45:52;;;;;;;0.00;0.00;;;;;;;1.51;98.24;100437.69;4972174;28;20034;-75
2024/01/14 03:48:18;;;;;;;0.00;0.00;;;;;;;1.50;98.33;100430.63;4967278;28;20811;-76
2024/01/14 03:50:43;;;;;;;0.10;0.10;;;;;;;1.47;98.50;100438.31;4960669;28;20543;-77
2024/01/14 03:53:09;;;;;;;0.00;0.00;;;;;;;1.48;98.16;100438.09;4973241;28;20030;-75
2024/01/14 03:55:34;;;;;;;0.10;0.10;;;;;;;1.42;98.52;100428.16;4964090;28;20062;-76
2024/01/14 03:57:59;;;;;;;0.10;0.10;;;;;;;1.48;98.92;100442.69;4953661;28;20030;-76
2024/01/14 04:00:25;;;;;;;0.00;0.00;;;;;;;1.44;98.58;100434.16;4965846;28;20092;-76
2024/01/14 04:02:51;;;;;;;0.00;0.00;;;;;;;1.47;98.61;100441.81;4969843;28;20048;-76
2024/01/14 04:05:16;;;;;;;0.10;0.10;;;;;;;1.48;98.36;100443.50;4960124;28;20448;-76
2024/01/14 04:07:41;;;;;;;0.08;0.08;;;;;;;1.49;98.16;100445.16;4946628;28;20039;-75
2024/01/14 04:10:07;;;;;;;0.00;0.00;;;;;;;1.47;98.06;100441.81;4947564;28;20031;-76
2024/01/14 04:12:33;;;;;;;0.10;0.10;;;;;;;1.47;98.54;100436.44;4927868;28;20383;-74
2024/01/14 04:14:58;;;;;;;0.00;0.00;;;;;;;1.45;98.26;100422.34;4962262;28;20026;-75
2024/01/14 04:17:24;;;;;;;0.00;0.00;;;;;;;1.47;98.24;100430.22;4969363;28;20049;-76
2024/01/14 04:19:49;;;;;;;0.10;0.10;;;;;;;1.48;98.08;100430.03;4978926;28;20038;-75
2024/01/14 04:22:14;;;;;;;0.00;0.00;;;;;;;1.45;98.55;100427.75;4947088;28;20034;-76
2024/01/14 04:24:41;;;;;;;0.10;0.10;;;;;;;1.47;98.64;100439.13;4962088;28;20022;-75
2024/01/14 04:27:07;;;;;;;0.10;0.10;;;;;;;1.50;98.55;100436.03;4967899;28;20540;-76
2024/01/14 04:29:32;;;;;;;0.10;0.10;;;;;;;1.50;98.64;100430.63;4951263;28;20292;-75
2024/01/14 04:31:58;;;;;;;0.00;0.00;;;;;;;1.51;98.36;100424.22;4947575;28;20030;-76
2024/01/14 04:34:23;;;;;;;0.10;0.10;;;;;;;1.50;98.70;100413.63;4965674;28;20524;-76
2024/01/14 04:36:48;;;;;;;0.10;0.10;;;;;;;1.51;98.49;100410.75;4970965;28;20031;-76
2024/01/14 04:39:14;;;;;;;0.10;0.10;;;;;;;1.51;98.09;100405.34;4947679;28;20030;-76
2024/01/14 04:41:41;;;;;;;0.00;0.00;;;;;;;1.55;98.41;100406.59;4957445;28;20401;-75
2024/01/14 04:44:06;;;;;;;0.10;0.10;;;;;;;1.53;98.47;100414.06;4970022;28;20117;-76
2024/01/14 04:46:32;;;;;;;0.10;0.10;;;;;;;1.51;98.88;100393.75;4943744;28;20034;-74
2024/01/14 04:48:58;;;;;;;0.00;0.00;;;;;;;1.51;98.60;100396.44;4934691;28;20170;-76
2024/01/14 04:51:23;;;;;;;0.00;0.00;;;;;;;1.52;99.02;100400.78;4967659;28;20933;-76
2024/01/14 04:53:49;;;;;;;0.00;0.00;;;;;;;1.51;99.08;100397.25;4964931;28;20046;-76
2024/01/14 04:56:14;;;;;;;0.00;0.00;;;;;;;1.48;98.76;100394.16;4954392;28;20500;-75
2024/01/14 04:58:40;;;;;;;0.00;0.00;;;;;;;1.58;98.81;100397.28;4978143;28;20045;-76
2024/01/14 05:01:05;;;;;;;0.00;0.00;;;;;;;1.53;98.40;100387.13;4950611;28;20035;-76
2024/01/14 05:03:31;;;;;;;0.00;0.00;;;;;;;1.57;99.09;100390.22;4951523;28;20385;-76
2024/01/14 05:05:57;;;;;;;0.00;0.00;;;;;;;1.56;98.57;100386.69;4977429;28;20026;-76
2024/01/14 05:08:22;;;;;;;0.05;0.05;;;;;;;1.60;99.10;100386.28;4985441;28;20027;-75
2024/01/14 05:10:48;;;;;;;0.00;0.00;;;;;;;1.54;98.65;100372.59;4948648;28;20037;-76
2024/01/14 05:13:13;;;;;;;0.00;0.00;;;;;;;1.55;98.87;100371.56;4963585;28;20031;-75
2024/01/14 05:15:39;;;;;;;0.00;0.00;;;;;;;1.55;99.33;100360.78;4963103;28;20038;-75
2024/01/14 05:18:05;;;;;;;0.10;0.10;;;;;;;1.53;99.27;100360.16;4971878;28;20080;-76
2024/01/14 05:20:31;;;;;;;0.00;0.00;;;;;;;1.61;99.45;100371.75;4967703;28;20117;-77
2024/01/14 05:22:56;;;;;;;0.00;0.00;;;;;;;1.60;99.14;100364.72;4960387;28;20026;-77
2024/01/14 05:25:21;;;;;;;0.00;0.00;;;;;;;1.59;99.24;100369.25;4937562;28;20042;-77
2024/01/14 05:27:47;;;;;;;0.00;0.00;;;;;;;1.54;98.92;100372.59;4951685;28;20053;-77
2024/01/14 05:30:13;;;;;;;0.10;0.10;;;;;;;1.60;99.28;100375.50;4968060;28;20033;-77
2024/01/14 05:32:39;;;;;;;0.10;0.10;;;;;;;1.57;99.17;100371.34;4946791;28;20579;-76
2024/01/14 05:35:04;;;;;;;0.10;0.10;;;;;;;1.57;98.78;100371.34;4969655;28;20109;-75
2024/01/14 05:37:31;;;;;;;0.00;0.00;;;;;;;1.56;98.90;100375.06;4961375;28;20834;-75
2024/01/14 05:39:57;;;;;;;0.00;0.00;;;;;;;1.52;99.15;100369.28;4966152;28;20034;-76
2024/01/14 05:42:22;;;;;;;0.00;0.00;;;;;;;1.53;98.99;100370.94;4955650;28;20096;-76
2024/01/14 05:44:48;;;;;;;0.00;0.00;;;;;;;1.50;99.71;100365.94;4953756;28;20015;-76
2024/01/14 05:47:13;;;;;;;0.00;0.00;;;;;;;1.50;99.53;100365.94;4943626;28;20031;-77
2024/01/14 05:49:38;;;;;;;0.00;0.00;;;;;;;1.53;99.47;100359.31;4947987;28;21157;-77
2024/01/14 05:52:04;;;;;;;0.00;0.00;;;;;;;1.51;99.74;100362.22;4962219;28;20388;-75
2024/01/14 05:54:30;;;;;;;0.00;0.00;;;;;;;1.49;99.50;100356.22;4951724;28;20175;-75
2024/01/14 05:56:57;;;;;;;0.00;0.00;;;;;;;1.44;99.72;100349.78;4970211;28;20485;-76
2024/01/14 05:59:27;;;;;;;0.00;0.00;;;;;;;1.40;99.54;100343.97;4956246;28;20034;-80
2024/01/14 06:01:53;;;;;;;0.10;0.10;;;;;;;1.42;100.00;100341.91;4974842;28;20377;-76
2024/01/14 06:04:18;;;;;;;0.00;0.00;;;;;;;1.49;99.89;100358.06;4941682;28;20033;-75
2024/01/14 06:06:44;;;;;;;0.10;0.10;;;;;;;1.49;100.00;100352.69;4938333;28;20026;-76
2024/01/14 06:09:09;;;;;;;0.00;0.00;;;;;;;1.46;99.91;100342.31;4936570;28;20038;-76
2024/01/14 06:11:34;;;;;;;0.10;0.10;;;;;;;1.47;100.00;100339.41;4945740;28;20400;-76
2024/01/14 06:14:00;;;;;;;0.00;0.00;;;;;;;1.46;99.97;100337.78;4931531;28;20026;-76
2024/01/14 06:16:25;;;;;;;0.00;0.00;;;;;;;1.49;100.00;100342.75;4970315;28;20033;-76
2024/01/14 06:18:52;;;;;;;0.00;0.00;;;;;;;1.47;100.00;100339.41;4955389;28;20011;-77
2024/01/14 06:21:17;;;;;;;0.10;0.10;;;;;;;1.49;100.00;100341.91;4965791;28;20026;-76
2024/01/14 06:23:43;;;;;;;0.00;0.00;;;;;;;1.45;100.00;100336.13;4967483;28;20450;-76
2024/01/14 06:26:15;;;;;;;0.00;0.00;;;;;;;1.51;100.00;100348.75;4946521;28;20026;-76
2024/01/14 06:28:41;;;;;;;0.10;0.10;;;;;;;1.53;100.00;100344.00;4944137;28;20043;-76
2024/01/14 06:31:07;;;;;;;0.10;0.10;;;;;;;1.54;100.00;100345.63;4941621;28;20030;-76
2024/01/14 06:33:33;;;;;;;0.08;0.08;;;;;;;1.53;100.00;100337.75;4965897;28;20035;-77
2024/01/14 06:35:58;;;;;;;0.00;0.00;;;;;;;1.51;100.00;100340.66;4954684;28;20111;-76
2024/01/14 06:38:23;;;;;;;0.10;0.10;;;;;;;1.51;100.00;100334.47;4950046;28;20591;-75
2024/01/14 06:40:49;;;;;;;0.00;0.00;;;;;;;1.54;100.00;100342.13;4965545;28;20014;-79
2024/01/14 06:43:14;;;;;;;0.00;0.00;;;;;;;1.53;100.00;100338.59;4955503;28;20058;-77
2024/01/14 06:45:40;;;;;;;0.00;0.00;;;;;;;1.53;100.00;100338.59;4959031;28;20072;-76
2024/01/14 06:48:06;;;;;;;0.10;0.10;;;;;;;1.52;100.00;100334.25;4970340;28;20026;-76
2024/01/14 06:50:31;;;;;;;0.00;0.00;;;;;;;1.55;100.00;100331.13;4954070;28;20050;-77
2024/01/14 06:52:56;;;;;;;0.00;0.00;;;;;;;1.55;100.00;100328.44;4970738;28;20034;-77
2024/01/14 06:55:22;;;;;;;0.00;0.00;;;;;;;1.46;100.00;100313.53;4964497;28;20541;-76
2024/01/14 06:57:47;;;;;;;0.10;0.10;;;;;;;1.47;100.00;100325.94;4951746;28;20030;-75
2024/01/14 07:00:13;;;;;;;0.00;0.00;;;;;;;1.40;100.00;100317.03;4959606;28;20121;-76
2024/01/14 07:02:39;;;;;;;0.00;0.00;;;;;;;1.43;100.00;100331.97;4952985;28;20030;-77
2024/01/14 07:05:06;;;;;;;0.00;0.00;;;;;;;1.41;100.00;100329.47;4958504;28;20030;-76
2024/01/14 07:07:33;;;;;;;0.10;0.10;;;;;;;1.37;100.00;100318.28;4941261;28;20023;-74
2024/01/14 07:09:58;;;;;;;0.00;0.00;;;;;;;1.36;100.00;100318.50;4941553;28;20026;-77
2024/01/14 07:12:24;;;;;;;0.00;0.00;;;;;;;1.31;100.00;100312.91;4950607;28;20385;-78
2024/01/14 07:14:50;;;;;;;0.10;0.10;;;;;;;1.29;100.00;100309.59;4955214;28;20189;-76
2024/01/14 07:17:15;;;;;;;0.00;0.00;;;;;;;1.32;100.00;100319.97;4955843;28;20512;-78
2024/01/14 07:19:41;;;;;;;0.00;0.00;;;;;;;1.31;100.00;100311.03;4955133;28;20030;-77
2024/01/14 07:22:06;;;;;;;0.00;0.00;;;;;;;1.34;100.00;100312.47;4974027;28;20097;-77
2024/01/14 07:24:38;;;;;;;0.00;0.00;;;;;;;1.29;100.00;100304.22;4935151;28;20023;-78
2024/01/14 07:27:04;;;;;;;0.10;0.10;;;;;;;1.42;100.00;100312.28;4974135;28;20178;-79
2024/01/14 07:29:30;;;;;;;0.10;0.10;;;;;;;1.40;100.00;100300.88;4961513;28;20035;-78
2024/01/14 07:31:58;;;;;;;0.00;0.00;;;;;;;1.38;100.00;100297.56;4957701;28;20057;-78
2024/01/14 07:34:23;;;;;;;0.00;0.00;;;;;;;1.48;100.00;100300.66;4957013;28;20046;-77
2024/01/14 07:36:56;;;;;;;0.10;0.10;;;;;;;1.45;100.00;100302.97;4961145;28;20019;-77
2024/01/14 07:39:27;;;;;;;0.10;0.10;;;;;;;1.27;100.00;100276.63;4956704;28;20062;-78
2024/01/14 07:42:54;;;;;;;0.00;0.00;;;;;;;1.47;100.00;100307.06;4951484;28;20098;-77
2024/01/14 07:46:09;;;;;;;;;;;;;;;;;;;;;
2024/01/14 07:53:09;;;;;;;;;;;;;;;;;;;;;
2024/01/14 07:55:40;;;;;;;0.05;0.05;;;;;;;1.07;100.00;100258.63;4823071;29;20058;-78
2024/01/14 08:02:18;;;;;;;0.00;0.00;;;;;;;1.26;100.00;100272.28;4957317;28;20058;-78
2024/01/14 08:05:42;;;;;;;;;;;;;;;;;;;;;
2024/01/14 08:12:11;;;;;;;0.10;0.10;;;;;;;1.48;100.00;100280.97;4770875;30;20036;-80
2024/01/14 08:15:22;;;;;;;0.00;0.00;;;;;;;1.77;100.00;100322.81;4829973;29;20045;-78
2024/01/14 08:17:54;;;;;;;0.00;0.00;;;;;;;1.57;100.00;100283.22;4918067;29;20031;-78
2024/01/14 08:24:35;;;;;;;;;;;;;;;;;;;;;
2024/01/14 08:27:38;;;;;;;0.10;0.10;;;;;;;1.78;100.00;100289.38;4927215;29;20494;-78
2024/01/14 08:33:15;;;;;;;0.00;0.00;;;;;;;1.69;100.00;100266.41;4861721;29;20115;-75
2024/01/14 08:36:08;;;;;;;0.10;0.10;;;;;;;2.01;100.00;100309.69;4922582;29;20123;-76
2024/01/14 08:38:36;;;;;;;0.08;0.08;;;;;;;2.00;100.00;100299.91;4919305;29;20036;-75
2024/01/14 08:41:11;;;;;;;0.00;0.00;;;;;;;1.94;100.00;100289.97;4927916;29;20035;-75
2024/01/14 08:43:56;;;;;;;;;;;;;;;;;;;;;
2024/01/14 08:46:33;;;;;;;;;;;;;;;;;;;;;
2024/01/14 08:49:03;;;;;;;0.00;0.00;;;;;;;1.85;100.00;100265.94;4976636;28;20033;-75
2024/01/14 08:51:59;;;;;;;0.00;0.00;;;;;;;2.09;100.00;100283.28;4965599;28;20030;-75
2024/01/14 08:54:24;;;;;;;0.00;0.00;;;;;;;2.06;100.00;100272.13;4976089;28;20042;-76
2024/01/14 08:57:13;;;;;;;0.00;0.00;;;;;;;2.23;100.00;100297.56;4969018;28;20036;-77
2024/01/14 08:59:56;;;;;;;0.10;0.10;;;;;;;2.18;100.00;100277.66;4956683;28;20030;-77
2024/01/14 09:05:19;;;;;;;0.00;0.00;;;;;;;2.45;100.00;100286.44;4973178;28;20062;-77
2024/01/14 09:08:18;;;;;;;;;;;;;;;;;;;;;
2024/01/14 09:10:53;;;;;;;0.00;0.00;;;;;;;2.42;100.00;100249.09;4973870;28;20041;-77
2024/01/14 09:13:31;;;;;;;;;;;;;;;;;;;;;
2024/01/14 09:16:06;;;;;;;0.00;0.00;;;;;;;2.62;99.35;100241.69;4980562;28;20469;-76
2024/01/14 09:18:35;;;;;;;0.00;0.00;;;;;;;2.65;99.26;100239.63;4967097;28;20036;-76
2024/01/14 09:21:00;;;;;;;0.00;0.00;;;;;;;2.73;98.65;100239.34;4960984;28;20034;-76
2024/01/14 09:23:41;;;;;;;0.00;0.00;;;;;;;3.12;98.81;100288.72;4964080;28;20027;-73
2024/01/14 09:26:06;;;;;;;0.00;0.00;;;;;;;3.05;98.36;100255.50;4963268;28;20089;-74
2024/01/14 09:28:39;;;;;;;0.00;0.00;;;;;;;3.17;98.22;100259.16;4984857;28;20062;-77
2024/01/14 09:31:15;;;;;;;0.00;0.00;;;;;;;3.36;97.27;100270.00;4965609;28;20385;-75
2024/01/14 09:34:04;;;;;;;0.00;0.00;;;;;;;3.25;96.82;100223.72;4951844;28;20030;-75
2024/01/14 09:36:57;;;;;;;0.00;0.00;;;;;;;3.51;95.73;100239.94;4961460;28;20023;-75
2024/01/14 09:39:23;;;;;;;0.00;0.00;;;;;;;3.66;95.35;100248.50;4937061;28;21025;-75
2024/01/14 09:45:06;;;;;;;0.00;0.00;;;;;;;3.72;93.33;100222.44;4975902;28;20392;-76
2024/01/14 09:47:57;;;;;;;;;;;;;;;;;;;;;
2024/01/14 09:50:34;;;;;;;;;;;;;;;;;;;;;
2024/01/14 09:53:34;;;;;;;;;;;;;;;;;;;;;
2024/01/14 09:56:49;;;;;;;0.00;0.00;;;;;;;4.08;92.54;100264.06;4970092;28;20095;-76
2024/01/14 09:59:26;;;;;;;0.00;0.00;;;;;;;4.08;91.80;100258.63;4963096;28;20058;-78
2024/01/14 10:02:13;;;;;;;;;;;;;;;;;;;;;
2024/01/14 10:04:47;;;;;;;0.00;0.00;;;;;;;4.15;91.79;100248.56;4970251;28;20022;-78
2024/01/14 10:07:13;;;;;;;0.10;0.10;;;;;;;4.31;91.69;100261.47;4938417;28;20122;-76
2024/01/14 10:09:57;;;;;;;;;;;;;;;;;;;;;
2024/01/14 10:12:25;;;;;;;0.00;0.00;;;;;;;4.13;89.90;100258.78;4958106;28;20027;-76
2024/01/14 10:15:00;;;;;;;0.00;0.00;;;;;;;4.08;89.40;100250.53;4945217;28;20129;-76
2024/01/14 10:17:29;;;;;;;0.10;0.10;;;;;;;4.08;89.84;100251.34;4931846;28;20027;-76
2024/01/14 10:19:57;;;;;;;0.00;0.00;;;;;;;4.10;90.07;100240.28;4949572;28;20047;-76
2024/01/14 10:22:23;;;;;;;0.00;0.00;;;;;;;4.18;89.11;100229.16;4947698;28;20106;-74
2024/01/14 10:24:52;;;;;;;0.00;0.00;;;;;;;4.43;89.26;100260.69;4944816;28;20066;-78
2024/01/14 10:27:23;;;;;;;0.00;0.00;;;;;;;4.60;88.39;100259.00;4944194;28;20058;-79
2024/01/14 10:29:49;;;;;;;0.10;0.10;;;;;;;4.66;88.37;100225.56;4945729;28;20028;-80
2024/01/14 10:32:18;;;;;;;0.00;0.00;;;;;;;5.00;87.74;100236.69;4951170;28;20070;-76
2024/01/14 10:34:44;;;;;;;0.00;0.00;;;;;;;5.37;85.42;100247.34;4945307;28;20050;-76
2024/01/14 10:37:12;;;;;;;0.00;0.00;;;;;;;5.52;85.34;100246.00;4963063;28;20066;-75
2024/01/14 10:39:38;;;;;;;0.00;0.00;;;;;;;5.33;83.92;100213.59;4941338;28;20030;-75
2024/01/14 10:42:04;;;;;;;0.00;0.00;;;;;;;5.45;83.87;100227.16;4960456;28;20039;-75
2024/01/14 10:44:35;;;;;;;0.00;0.00;;;;;;;5.82;82.91;100226.03;4946804;28;20010;-76
2024/01/14 10:47:03;;;;;;;0.00;0.00;;;;;;;6.26;81.98;100216.41;4935539;28;20035;-74
2024/01/14 10:49:30;;;;;;;0.00;0.00;;;;;;;7.08;79.61;100227.88;4954090;28;20030;-77
2024/01/14 10:52:07;;;;;;;0.00;0.00;;;;;;;10.82;68.43;100233.22;4946607;28;20097;-77
2024/01/14 10:54:39;;;;;;;0.00;0.00;;;;;;;10.96;60.75;100203.41;4960509;28;20050;-77
2024/01/14 10:57:13;;;;;;;0.00;0.00;;;;;;;10.59;62.37;100221.69;4969867;28;20061;-78
2024/01/14 10:59:43;;;;;;;0.00;0.00;;;;;;;9.91;61.95;100195.22;4969176;28;20035;-77
2024/01/14 11:02:17;;;;;;;0.00;0.00;;;;;;;9.52;63.76;100203.81;4973077;28;20034;-78
2024/01/14 11:04:47;;;;;;;0.00;0.00;;;;;;;9.18;64.24;100214.22;4963827;28;20169;-74
2024/01/14 11:07:13;;;;;;;0.00;0.00;;;;;;;8.77;66.18;100203.78;4965017;28;20121;-75
2024/01/14 11:09:41;;;;;;;0.00;0.00;;;;;;;8.67;67.12;100190.91;4981616;28;20109;-76
2024/01/14 11:12:18;;;;;;;0.00;0.00;;;;;;;9.69;64.99;100175.50;4953114;28;20858;-75
2024/01/14 11:15:01;;;;;;;0.00;0.00;;;;;;;10.45;61.99;100185.03;4977998;28;20105;-77
2024/01/14 11:17:50;;;;;;;0.00;0.00;;;;;;;10.94;59.76;100198.19;4958126;28;20560;-74
2024/01/14 11:20:20;;;;;;;0.00;0.00;;;;;;;10.49;59.86;100197.06;4971585;28;20225;-76
2024/01/14 11:22:45;;;;;;;0.00;0.00;;;;;;;9.70;61.39;100169.75;4970788;28;20030;-76
2024/01/14 11:25:18;;;;;;;0.10;0.10;;;;;;;9.05;63.60;100177.28;4960714;28;20035;-75
2024/01/14 11:27:44;;;;;;;0.00;0.00;;;;;;;8.56;65.43;100176.34;4972089;28;20018;-77
2024/01/14 11:30:11;;;;;;;0.00;0.00;;;;;;;8.06;66.56;100177.47;4989986;28;20056;-76
2024/01/14 11:32:37;;;;;;;0.00;0.00;;;;;;;7.65;68.78;100171.53;4986032;28;20073;-76
2024/01/14 11:35:03;;;;;;;0.00;0.00;;;;;;;7.25;69.99;100150.88;4970502;28;20097;-76
2024/01/14 11:37:29;;;;;;;0.10;0.10;;;;;;;7.19;71.97;100168.19;4945698;28;20023;-75
2024/01/14 11:40:25;;;;;;;0.00;0.00;;;;;;;7.07;72.79;100179.97;4985759;28;20109;-75
2024/01/14 11:42:57;;;;;;;0.00;0.00;;;;;;;6.98;73.87;100165.16;4964710;28;20124;-77
2024/01/14 11:45:25;;;;;;;0.00;0.00;;;;;;;6.89;74.26;100153.06;4969045;28;20034;-75
2024/01/14 11:47:52;;;;;;;0.00;0.00;;;;;;;6.67;74.76;100139.38;4971406;28;20122;-77
2024/01/14 11:50:30;;;;;;;0.00;0.00;;;;;;;6.73;75.30;100150.09;4970516;28;20027;-76
2024/01/14 11:52:58;;;;;;;0.00;0.00;;;;;;;6.78;75.88;100158.31;4977123;28;20034;-76
2024/01/14 11:55:36;;;;;;;0.00;0.00;;;;;;;6.75;76.41;100125.41;4966061;28;20039;-76
2024/01/14 11:58:16;;;;;;;0.00;0.00;;;;;;;7.12;75.52;100136.53;4972077;28;20030;-78
2024/01/14 12:00:54;;;;;;;0.00;0.00;;;;;;;7.80;74.47;100141.78;4975063;28;20030;-79
2024/01/14 12:03:22;;;;;;;0.00;0.00;;;;;;;8.38;71.86;100105.84;4985807;28;20046;-76
2024/01/14 12:05:49;;;;;;;0.00;0.00;;;;;;;9.17;69.13;100120.66;4965547;28;20026;-77
2024/01/14 12:11:03;;;;;;;0.00;0.00;;;;;;;9.62;65.00;100102.00;4970319;28;20097;-77
2024/01/14 12:13:48;;;;;;;;;;;;;;;;;;;;;
2024/01/14 12:16:16;;;;;;;;;;;;;;;9.30;64.71;100133.00;4986592;28;20473;-80
2024/01/14 12:19:01;;;;;;;;;;;;;;;;;;;;;
2024/01/14 12:21:37;;;;;;;;;;;;;;;;;;;;;
2024/01/14 12:24:12;;;;;;;0.00;0.00;;;;;;;7.89;68.93;100076.00;4986538;28;20115;-77
2024/01/14 12:26:38;;;;;;;0.00;0.00;;;;;;;7.89;69.63;100079.53;4967489;28;20444;-79
2024/01/14 12:29:06;;;;;;;0.00;0.00;;;;;;;7.98;69.61;100077.16;4969082;28;20046;-79
2024/01/14 12:31:52;;;;;;;0.10;0.10;;;;;;;8.16;69.48;100073.25;4964721;28;20031;-78